Peers, Canada
Current Conditions -  °F | °C
As of 7:00 AM on Monday 20 Oct 2014 (Local Time) from CYET Reporting Station
Clear Clear  
Wind Chill: 36°   Ceiling: Unl
Heat Index: 36°   Visibility: 9mi
Dew Point: 32°   Wind: 3mph
Humidity: 87%   Direction: 230°SW
Pressure: 29.57"   Gusts: NA
Location:  53.68°N, 115.99°W
Report Text: CYET 201300Z AUTO 23003KT 210V280 9SM CLR 02/00 A2957 RMK SLP037
Loading
Personal Weather Stations






























Interactive Weather Map
Tropical Storm Tracking
New forecast layout! Learn more

10-Day Weather Forecast

Advertisements
Track Severe Weather on mobile